Terminal Aerodrome Forecast
Issued by NWS Tiyan, Guam

Home | Current Version | Previous Version | Text Only | Print | Product List | Glossary On
Versions: 1 2 3 4 5 6 7 8 9 10 11 12 13 14 15 16 17 18 19 20 21 22 23 24 25 26 27 28 29 30 31 32 33 34 35 36 37 38
000
FTPQ31 PGUM 302300
TAFPQ
TAF
PGUM 302332Z 3100/0106 16007KT 6SM -RA SCT015 BKN035 OVC100
      TEMPO 3100/3102 VRB11G18KT 3SM SHRA SCT014 BKN025 OVC040
     FM310400 19011KT P6SM VCSH SCT014 SCT040 BKN100
     FM310900 20007KT P6SM VCSH SCT015 SCT050 BKN120=

USA.gov is the U.S. government's official web portal to all federal, state and local government web resources and services.